createdAt,value
2023-05-04T00:02:03.055Z,3.90
2023-05-04T00:05:17.475Z,3.97
2023-05-04T00:08:19.335Z,4.00
2023-05-04T00:11:34.469Z,4.35
2023-05-04T00:14:43.107Z,3.78
2023-05-04T00:17:51.471Z,4.50
2023-05-04T00:21:07.445Z,4.12
2023-05-04T00:24:09.050Z,3.65
2023-05-04T00:27:23.450Z,4.00
2023-05-04T00:30:38.480Z,3.90
2023-05-04T00:33:40.128Z,4.23
2023-05-04T00:36:54.443Z,3.85
2023-05-04T00:39:56.317Z,3.85
2023-05-04T00:43:12.563Z,3.90
2023-05-04T00:46:14.941Z,4.10
2023-05-04T00:49:30.463Z,4.07
2023-05-04T00:52:50.506Z,3.87
2023-05-04T00:55:59.519Z,4.35
2023-05-04T00:59:07.456Z,4.03
2023-05-04T01:02:16.008Z,4.43
2023-05-04T01:05:24.462Z,3.93
2023-05-04T01:08:40.634Z,4.43
2023-05-04T01:12:02.464Z,5.05
2023-05-04T01:15:18.560Z,4.22
2023-05-04T01:18:27.020Z,4.57
2023-05-04T01:21:36.502Z,4.87
2023-05-04T01:24:45.605Z,4.30
2023-05-04T01:28:18.546Z,4.82
2023-05-04T01:31:32.518Z,4.82
2023-05-04T01:34:41.694Z,4.50
2023-05-04T01:37:51.192Z,4.50
2023-05-04T01:40:59.115Z,4.20
2023-05-04T01:44:07.475Z,4.68
2023-05-04T01:47:22.668Z,4.40
2023-05-04T01:50:25.329Z,4.43
2023-05-04T01:53:40.631Z,4.00
2023-05-04T01:56:55.507Z,4.43
2023-05-04T01:59:57.224Z,5.07
2023-05-04T02:03:11.594Z,5.32
2023-05-04T02:06:20.254Z,4.97
2023-05-04T02:09:28.084Z,4.73
2023-05-04T02:12:36.510Z,4.40
2023-05-04T02:15:45.041Z,5.05
2023-05-04T02:18:53.551Z,4.50
2023-05-04T02:22:08.795Z,4.60
2023-05-04T02:25:10.503Z,4.33
2023-05-04T02:28:32.484Z,4.32
2023-05-04T02:31:40.607Z,4.35
2023-05-04T02:34:49.052Z,3.70
2023-05-04T02:37:57.522Z,4.28
2023-05-04T02:41:07.101Z,3.80
2023-05-04T02:44:15.526Z,3.62
2023-05-04T02:47:30.513Z,3.42
2023-05-04T02:50:41.638Z,3.12
2023-05-04T02:53:49.997Z,3.20
2023-05-04T02:56:58.801Z,3.10
2023-05-04T03:00:14.618Z,2.70
2023-05-04T03:03:24.743Z,2.60
2023-05-04T03:06:33.451Z,2.95
2023-05-04T03:09:45.300Z,2.80
2023-05-04T03:13:01.616Z,2.57
2023-05-04T03:16:16.535Z,2.58
2023-05-04T03:19:25.170Z,2.47
2023-05-04T03:22:33.672Z,2.25
2023-05-04T03:25:48.568Z,2.28
2023-05-04T03:28:50.426Z,2.37
2023-05-04T03:32:05.585Z,2.20
2023-05-04T03:35:32.736Z,2.58
2023-05-04T03:38:34.715Z,2.67
2023-05-04T03:41:49.534Z,1.90
2023-05-04T03:44:57.583Z,2.20
2023-05-04T03:48:12.805Z,2.10
2023-05-04T03:51:21.948Z,2.03
2023-05-04T03:54:30.693Z,2.10
2023-05-04T03:57:39.079Z,1.98
2023-05-04T04:00:48.533Z,2.47
2023-05-04T04:03:57.665Z,2.47
2023-05-04T04:07:12.622Z,2.45
2023-05-04T04:10:22.579Z,2.40
2023-05-04T04:13:31.353Z,2.45
2023-05-04T04:16:39.606Z,2.40
2023-05-04T04:19:54.577Z,3.00
2023-05-04T04:22:56.307Z,4.50
2023-05-04T04:26:10.972Z,3.60
2023-05-04T04:29:25.811Z,3.47
2023-05-04T04:32:42.949Z,3.90
2023-05-04T04:35:52.258Z,3.33
2023-05-04T04:39:06.589Z,3.60
2023-05-04T04:42:14.557Z,3.83
2023-05-04T04:45:23.554Z,4.03
2023-05-04T04:48:38.559Z,3.30
2023-05-04T04:51:40.665Z,3.42
2023-05-04T04:54:55.577Z,3.28
2023-05-04T04:58:03.722Z,2.67
2023-05-04T05:01:19.624Z,3.00
2023-05-04T05:04:27.610Z,2.50
2023-05-04T05:07:37.155Z,3.25
2023-05-04T05:10:46.632Z,2.70
2023-05-04T05:13:55.134Z,2.55
2023-05-04T05:17:03.660Z,2.62
2023-05-04T05:20:13.204Z,3.13
2023-05-04T05:23:22.886Z,2.60
2023-05-04T05:26:31.289Z,2.70
2023-05-04T05:29:46.012Z,2.55
2023-05-04T05:32:54.508Z,2.90
2023-05-04T05:36:02.603Z,2.50
2023-05-04T05:39:17.685Z,2.70
2023-05-04T05:42:26.170Z,3.15
2023-05-04T05:45:34.825Z,2.53
2023-05-04T05:48:43.436Z,2.50
2023-05-04T05:51:59.666Z,2.80
2023-05-04T05:55:15.627Z,2.40
2023-05-04T05:58:31.026Z,7.15
2023-05-04T06:01:39.714Z,4.00
2023-05-04T06:04:48.201Z,3.20
2023-05-04T06:07:56.634Z,2.80
2023-05-04T06:11:11.666Z,2.47
2023-05-04T06:14:19.630Z,2.80
2023-05-04T06:17:28.493Z,2.17
2023-05-04T06:20:38.666Z,2.25
2023-05-04T06:23:57.664Z,2.43
2023-05-04T06:27:05.910Z,2.55
2023-05-04T06:30:21.622Z,2.90
2023-05-04T06:33:29.739Z,2.00
2023-05-04T06:36:46.938Z,2.12
2023-05-04T06:39:55.551Z,2.40
2023-05-04T06:43:03.679Z,2.42
2023-05-04T06:46:18.756Z,2.15
2023-05-04T06:49:27.488Z,2.28
2023-05-04T06:52:39.793Z,2.47
2023-05-04T06:55:47.664Z,4.40
2023-05-04T06:58:56.714Z,2.40
2023-05-04T07:02:05.684Z,2.70
2023-05-04T07:05:21.003Z,3.70
2023-05-04T07:08:22.753Z,2.70
2023-05-04T07:11:37.669Z,2.50
2023-05-04T07:14:45.681Z,3.28
2023-05-04T07:17:54.192Z,2.80
2023-05-04T07:21:21.748Z,3.37
2023-05-04T07:24:37.669Z,2.80
2023-05-04T07:27:46.168Z,2.53
2023-05-04T07:31:01.689Z,2.08
2023-05-04T07:34:09.669Z,2.00
2023-05-04T07:37:24.759Z,2.28
2023-05-04T07:40:34.230Z,2.42
2023-05-04T07:43:42.703Z,2.33
2023-05-04T07:46:57.697Z,2.67
2023-05-04T07:49:59.360Z,7.72
2023-05-04T07:53:13.671Z,4.62
2023-05-04T07:56:15.450Z,2.75
2023-05-04T07:59:29.674Z,4.60
2023-05-04T08:02:44.811Z,2.80
2023-05-04T08:05:53.988Z,2.78
2023-05-04T08:09:02.258Z,3.22
2023-05-04T08:12:17.046Z,3.20
2023-05-04T08:15:25.301Z,2.13
2023-05-04T08:18:33.689Z,2.37
2023-05-04T08:21:49.404Z,2.70
2023-05-04T08:24:51.376Z,2.62
2023-05-04T08:28:05.701Z,2.80
2023-05-04T08:31:14.811Z,3.13
2023-05-04T08:34:29.734Z,2.78
2023-05-04T08:37:38.021Z,5.70
2023-05-04T08:40:50.578Z,3.10
2023-05-04T08:43:58.750Z,3.67
2023-05-04T08:47:07.342Z,2.87
2023-05-04T08:50:21.759Z,2.28
2023-05-04T08:53:31.479Z,2.35
2023-05-04T08:56:41.070Z,2.80
2023-05-04T08:59:52.689Z,3.17
2023-05-04T09:03:01.808Z,2.83
2023-05-04T09:06:18.087Z,2.58
2023-05-04T09:09:21.677Z,2.50
2023-05-04T09:12:36.852Z,2.67
2023-05-04T09:15:45.022Z,2.97
2023-05-04T09:19:00.787Z,2.50
2023-05-04T09:22:17.596Z,2.97
2023-05-04T09:25:32.772Z,2.72
2023-05-04T09:28:41.825Z,2.60
2023-05-04T09:31:58.778Z,3.15
2023-05-04T09:35:07.133Z,6.07
2023-05-04T09:38:26.765Z,3.00
2023-05-04T09:41:38.754Z,3.10
2023-05-04T09:45:07.165Z,2.53
2023-05-04T09:48:23.711Z,2.72
2023-05-04T09:51:38.806Z,2.30
2023-05-04T09:54:52.309Z,2.50
2023-05-04T09:58:08.238Z,2.30
2023-05-04T10:01:16.823Z,3.00
2023-05-04T10:04:32.788Z,2.90
2023-05-04T10:07:35.491Z,3.03
2023-05-04T10:10:50.819Z,3.70
2023-05-04T10:13:55.290Z,6.50
2023-05-04T10:17:29.873Z,2.95
2023-05-04T10:20:55.644Z,2.33
2023-05-04T10:24:30.068Z,2.33
2023-05-04T10:27:48.737Z,2.40
2023-05-04T10:31:05.044Z,3.30
2023-05-04T10:34:31.791Z,4.20
2023-05-04T10:37:37.686Z,4.82
2023-05-04T10:40:56.110Z,2.50
2023-05-04T10:44:06.093Z,2.50
2023-05-04T10:47:20.865Z,3.10
2023-05-04T10:50:33.149Z,2.83
2023-05-04T10:53:41.692Z,2.55
2023-05-04T10:56:49.834Z,2.63
2023-05-04T11:00:05.823Z,2.60
2023-05-04T11:03:18.996Z,2.22
2023-05-04T11:06:27.669Z,2.60
2023-05-04T11:09:45.274Z,2.30
2023-05-04T11:12:55.373Z,2.47
2023-05-04T11:16:03.937Z,2.65
2023-05-04T11:19:18.866Z,2.42
2023-05-04T11:22:34.264Z,2.10
2023-05-04T11:25:44.018Z,2.35
2023-05-04T11:28:59.842Z,2.93
2023-05-04T11:35:34.886Z,2.17
2023-05-04T11:38:50.919Z,2.70
2023-05-04T11:41:58.774Z,0.50
2023-05-04T11:45:25.886Z,2.80
2023-05-04T11:48:42.878Z,3.22
2023-05-04T11:51:51.825Z,2.30
2023-05-04T11:55:01.943Z,4.45
2023-05-04T11:58:21.052Z,2.40
2023-05-04T12:01:41.915Z,2.90
2023-05-04T12:08:47.136Z,0.50
2023-05-04T12:11:55.617Z,0.30
2023-05-04T12:15:14.922Z,0.22
2023-05-04T12:18:23.561Z,0.40
2023-05-04T12:21:33.186Z,0.20
2023-05-04T12:24:41.685Z,0.30
2023-05-04T12:27:51.575Z,0.40
2023-05-04T12:31:12.943Z,0.47
2023-05-04T12:34:21.452Z,0.20
2023-05-04T12:37:29.871Z,0.30
2023-05-04T12:40:38.596Z,0.40
2023-05-04T12:43:46.899Z,0.50
2023-05-04T12:47:01.914Z,0.30
2023-05-04T12:50:10.646Z,0.30
2023-05-04T12:53:24.951Z,0.20
2023-05-04T12:56:40.921Z,0.47
2023-05-04T12:59:49.434Z,0.50
2023-05-04T13:03:00.751Z,0.20
2023-05-04T13:06:15.889Z,0.30
2023-05-04T13:09:17.621Z,0.60
2023-05-04T13:12:32.269Z,0.75
2023-05-04T13:15:40.440Z,0.25
2023-05-04T13:18:54.917Z,0.30
2023-05-04T13:22:02.947Z,0.20
2023-05-04T13:25:12.896Z,0.40
2023-05-04T13:28:29.904Z,0.70
2023-05-04T13:31:44.843Z,0.35
2023-05-04T13:35:00.960Z,0.22
2023-05-04T13:38:10.145Z,0.30
2023-05-04T13:41:18.930Z,0.30
2023-05-04T13:44:27.991Z,0.65
2023-05-04T13:47:43.001Z,0.30
2023-05-04T13:50:45.919Z,0.20
2023-05-04T13:54:02.520Z,0.20
2023-05-04T13:57:11.737Z,0.30
2023-05-04T14:00:31.971Z,0.20
2023-05-04T14:03:40.601Z,0.60
2023-05-04T14:06:55.974Z,0.40
2023-05-04T14:10:12.000Z,0.27
2023-05-04T14:13:26.987Z,0.40
2023-05-04T14:16:38.053Z,0.40
2023-05-04T14:19:46.509Z,0.40
2023-05-04T14:23:01.000Z,0.30
2023-05-04T14:26:15.934Z,0.20
2023-05-04T14:29:38.024Z,0.43
2023-05-04T14:32:47.079Z,0.30
2023-05-04T14:36:02.121Z,0.30
2023-05-04T14:39:03.892Z,0.93
2023-05-04T14:42:18.992Z,0.30
2023-05-04T14:45:27.965Z,0.32
2023-05-04T14:48:36.481Z,0.43
2023-05-04T14:51:45.015Z,0.20
2023-05-04T14:54:53.535Z,0.82
2023-05-04T14:58:02.009Z,0.30
2023-05-04T15:01:17.061Z,0.37
2023-05-04T15:04:18.978Z,0.20
2023-05-04T15:07:34.147Z,0.20
2023-05-04T15:10:38.832Z,0.22
2023-05-04T15:13:54.049Z,0.50
2023-05-04T15:16:55.734Z,0.28
2023-05-04T15:20:11.993Z,0.20
2023-05-04T15:23:22.043Z,0.40
2023-05-04T15:26:36.981Z,0.30
2023-05-04T15:29:45.273Z,0.50
2023-05-04T15:33:00.103Z,0.52
2023-05-04T15:36:06.229Z,0.20
2023-05-04T15:39:24.130Z,0.30
2023-05-04T15:42:32.045Z,0.55
2023-05-04T15:45:47.302Z,0.73
2023-05-04T15:49:02.029Z,0.32
2023-05-04T15:52:03.806Z,0.40
2023-05-04T15:58:31.534Z,0.30
2023-05-04T16:01:46.092Z,0.33
2023-05-04T16:04:55.971Z,0.20
2023-05-04T16:08:04.078Z,0.40
2023-05-04T16:11:19.178Z,0.40
2023-05-04T16:14:27.983Z,0.30
2023-05-04T16:17:36.104Z,0.20
2023-05-04T16:20:46.697Z,0.57
2023-05-04T16:23:58.050Z,0.45
2023-05-04T16:27:13.055Z,0.40
2023-05-04T16:30:38.128Z,0.47
2023-05-04T16:33:41.006Z,0.50
2023-05-04T16:36:56.103Z,0.30
2023-05-04T16:40:17.139Z,1.12
2023-05-04T16:43:27.191Z,0.22
2023-05-04T16:46:35.603Z,0.40
2023-05-04T16:49:44.030Z,0.30
2023-05-04T16:52:59.087Z,0.30
2023-05-04T16:56:03.978Z,0.50
2023-05-04T16:59:19.367Z,0.30
2023-05-04T17:02:28.429Z,0.30
2023-05-04T17:05:36.592Z,0.63
2023-05-04T17:08:51.101Z,0.20
2023-05-04T17:11:59.143Z,0.30
2023-05-04T17:15:14.183Z,0.30
2023-05-04T17:18:16.604Z,0.37
2023-05-04T17:21:32.057Z,0.40
2023-05-04T17:24:41.226Z,0.30
2023-05-04T17:27:57.114Z,0.40
2023-05-04T17:31:12.484Z,0.57
2023-05-04T17:34:20.640Z,0.30
2023-05-04T17:37:30.155Z,0.90
2023-05-04T17:40:39.693Z,0.52
2023-05-04T17:43:54.124Z,0.30
2023-05-04T17:46:56.169Z,0.30
2023-05-04T17:50:12.135Z,0.40
2023-05-04T17:53:20.658Z,0.30
2023-05-04T17:56:29.093Z,0.37
2023-05-04T17:59:37.643Z,0.30
2023-05-04T18:02:46.521Z,0.20
2023-05-04T18:06:01.149Z,0.30
2023-05-04T18:09:03.439Z,0.20
2023-05-04T18:12:18.215Z,0.82
2023-05-04T18:15:19.962Z,0.60
2023-05-04T18:18:35.188Z,0.50
2023-05-04T18:21:50.472Z,0.40
2023-05-04T18:24:52.442Z,0.40
2023-05-04T18:28:07.114Z,0.50
2023-05-04T18:31:22.494Z,0.47
2023-05-04T18:34:37.444Z,0.20
2023-05-04T18:37:39.240Z,0.60
2023-05-04T18:40:59.129Z,0.60
2023-05-04T18:44:00.846Z,0.45
2023-05-04T18:47:15.821Z,0.32
2023-05-04T18:50:35.179Z,0.40
2023-05-04T18:53:43.948Z,0.20
2023-05-04T18:56:52.187Z,0.30
2023-05-04T19:00:07.583Z,0.50
2023-05-04T19:03:19.290Z,0.30
2023-05-04T19:06:27.683Z,0.20
2023-05-04T19:09:36.192Z,0.50
2023-05-04T19:12:52.080Z,0.67
2023-05-04T19:16:00.819Z,0.30
2023-05-04T19:19:15.126Z,1.05
2023-05-04T19:22:17.093Z,2.28
2023-05-04T19:25:35.112Z,0.70
2023-05-04T19:28:44.329Z,0.83
2023-05-04T19:32:05.558Z,0.20
2023-05-04T19:35:20.212Z,0.50
2023-05-04T19:38:35.242Z,0.77
2023-05-04T19:41:36.933Z,0.25
2023-05-04T19:44:51.905Z,0.27
2023-05-04T19:47:53.626Z,0.20
2023-05-04T19:51:09.155Z,0.47
2023-05-04T19:54:24.307Z,0.35
2023-05-04T19:57:47.181Z,0.20
2023-05-04T20:00:59.895Z,0.30
2023-05-04T20:04:14.461Z,0.37
2023-05-04T20:07:29.228Z,0.30
2023-05-04T20:10:32.620Z,0.30
2023-05-04T20:13:47.209Z,0.30
2023-05-04T20:16:48.970Z,0.20
2023-05-04T20:20:04.455Z,0.20
2023-05-04T20:23:15.322Z,0.28
2023-05-04T20:26:23.265Z,0.40
2023-05-04T20:29:38.317Z,1.85
2023-05-04T20:32:47.588Z,1.23
2023-05-04T20:36:03.193Z,0.73
2023-05-04T20:39:11.230Z,0.43
2023-05-04T20:42:19.930Z,0.20
2023-05-04T20:45:28.187Z,0.40
2023-05-04T20:48:43.217Z,0.20
2023-05-04T20:51:51.495Z,0.20
2023-05-04T20:55:00.036Z,0.52
2023-05-04T20:58:15.217Z,1.17
2023-05-04T21:01:20.547Z,0.70
2023-05-04T21:04:35.497Z,0.50
2023-05-04T21:07:44.219Z,0.30
2023-05-04T21:11:01.272Z,0.40
2023-05-04T21:14:10.094Z,0.77
2023-05-04T21:17:18.237Z,0.50
2023-05-04T21:20:33.202Z,0.40
2023-05-04T21:23:48.213Z,0.30
2023-05-04T21:26:56.656Z,0.62
2023-05-04T21:30:11.574Z,0.40
2023-05-04T21:33:27.242Z,0.45
2023-05-04T21:36:42.446Z,0.40
2023-05-04T21:39:44.161Z,0.40
2023-05-04T21:43:00.553Z,0.62
2023-05-04T21:46:08.292Z,0.40
2023-05-04T21:49:16.775Z,0.30
2023-05-04T21:52:28.496Z,0.27
2023-05-04T21:55:36.941Z,0.43
2023-05-04T21:58:46.442Z,0.40
2023-05-04T22:02:01.605Z,0.20
2023-05-04T22:05:03.585Z,0.30
2023-05-04T22:08:18.482Z,0.27
2023-05-04T22:11:28.056Z,0.73
2023-05-04T22:14:35.821Z,0.30
2023-05-04T22:17:51.047Z,0.30
2023-05-04T22:20:58.885Z,0.30
2023-05-04T22:24:07.287Z,0.20
2023-05-04T22:27:15.809Z,0.30
2023-05-04T22:30:24.274Z,0.28
2023-05-04T22:33:32.894Z,0.20
2023-05-04T22:36:41.242Z,0.40
2023-05-04T22:39:49.833Z,0.30
2023-05-04T22:42:58.313Z,0.30
2023-05-04T22:46:13.286Z,0.30
2023-05-04T22:49:17.127Z,0.22
2023-05-04T22:52:32.632Z,0.25
2023-05-04T22:55:41.573Z,0.30
2023-05-04T22:58:50.420Z,0.30
2023-05-04T23:02:05.340Z,0.30
2023-05-04T23:05:20.383Z,0.40
2023-05-04T23:08:22.313Z,0.30
2023-05-04T23:11:37.328Z,0.77
2023-05-04T23:14:39.075Z,0.30
2023-05-04T23:17:53.787Z,0.20
2023-05-04T23:21:01.875Z,0.30
2023-05-04T23:24:16.322Z,0.30
2023-05-04T23:27:24.981Z,0.43
2023-05-04T23:30:46.345Z,0.60
2023-05-04T23:33:48.018Z,0.30
2023-05-04T23:37:02.438Z,0.30
2023-05-04T23:40:11.339Z,0.40
2023-05-04T23:43:21.529Z,0.40
2023-05-04T23:46:29.297Z,0.87
2023-05-04T23:49:44.341Z,0.30
2023-05-04T23:52:46.049Z,0.20
2023-05-04T23:56:08.323Z,0.40
2023-05-04T23:59:16.860Z,0.27
